Time;durP1;ratioP1;P1;durP2;ratioP2;P2;SDS_P1;SDS_P2;PMS_P1;PMS_P2;Temp;Humidity;BMP_temperature;BMP_pressure;BME280_temperature;BME280_humidity;BME280_pressure;Samples;Min_cycle;Max_cycle;Signal;HPM_P1;HPM_P2
2021/01/23 00:01:52;;;;;;;22.8;16.7;;;;;;;1.42;87.16699;97130.03;;;;
2021/01/23 00:11:50;;;;;;;17.5;15.6;;;;;;;1.37;87.40039;97116.8;;;;
2021/01/23 00:21:48;;;;;;;13.6;9.9;;;;;;;1.38;88.82324;97100.61;;;;
2021/01/23 00:31:46;;;;;;;17.9;6.8;;;;;;;2.06;91.75098;97097.53;;;;
2021/01/23 00:41:44;;;;;;;12.4;8.6;;;;;;;2.98;92.78418;97100.25;;;;
2021/01/23 00:51:42;;;;;;;22.5;7.1;;;;;;;4.6;85.73926;97096.7;;;;
2021/01/23 01:01:40;;;;;;;12.2;7.3;;;;;;;5.14;83.76855;97084.89;;;;
2021/01/23 01:11:38;;;;;;;9.6;5.2;;;;;;;5.84;80.3623;97072.16;;;;
2021/01/23 01:21:36;;;;;;;11.2;5.6;;;;;;;6.19;77.45703;97064.16;;;;
2021/01/23 01:31:36;;;;;;;11.3;6.3;;;;;;;6.21;76.63477;97060.09;;;;
2021/01/23 01:41:33;;;;;;;11.1;5.8;;;;;;;6.11;76.55078;97057.7;;;;
2021/01/23 01:51:31;;;;;;;10;4.7;;;;;;;6.1;76.79297;97050.02;;;;
2021/01/23 02:01:29;;;;;;;7.5;4.2;;;;;;;6.04;75.99121;97047.48;;;;
2021/01/23 02:11:28;;;;;;;8.7;5.3;;;;;;;5.76;76.25488;97048.86;;;;
2021/01/23 02:21:28;;;;;;;8.7;5.6;;;;;;;5.61;76.67188;97027.16;;;;
2021/01/23 02:31:25;;;;;;;12;5.8;;;;;;;5.49;76.95313;97001.05;;;;
2021/01/23 02:41:23;;;;;;;9.2;5.8;;;;;;;5.59;77.10547;96995.4;;;;
2021/01/23 02:51:21;;;;;;;11.4;7.2;;;;;;;5.61;77.04004;96995.09;;;;
2021/01/23 03:01:20;;;;;;;9.6;5.8;;;;;;;5.16;78.32031;96981.22;;;;
2021/01/23 03:21:17;;;;;;;14.8;7.1;;;;;;;4.2;81.91113;96981.17;;;;
2021/01/23 03:31:15;;;;;;;10.3;6.4;;;;;;;5.07;80.20898;96963.28;;;;
2021/01/23 03:41:13;;;;;;;8.4;4.7;;;;;;;4.92;80.69238;96971.75;;;;
2021/01/23 03:51:11;;;;;;;10.3;6.9;;;;;;;5.37;79.23828;96961.61;;;;
2021/01/23 04:01:10;;;;;;;9.1;6.7;;;;;;;5.41;78.28711;96943.08;;;;
2021/01/23 04:11:08;;;;;;;9.4;4.8;;;;;;;5.69;78.30371;96943.55;;;;
2021/01/23 04:21:06;;;;;;;9;5.7;;;;;;;6.02;77.1709;96950.76;;;;
2021/01/23 04:31:05;;;;;;;8.5;6.3;;;;;;;5.9;76.7041;96963.97;;;;
2021/01/23 04:41:03;;;;;;;7;5.3;;;;;;;5.86;76.54883;96940.88;;;;
2021/01/23 04:51:02;;;;;;;8.2;4.9;;;;;;;5.75;76.56348;96951.09;;;;
2021/01/23 05:01:00;;;;;;;10.4;6.1;;;;;;;5.55;76.67578;96928.44;;;;
2021/01/23 05:10:58;;;;;;;9.7;7.8;;;;;;;5.39;77.42578;96923.89;;;;
2021/01/23 05:20:57;;;;;;;12.3;7.6;;;;;;;5.23;77.97461;96925.46;;;;
2021/01/23 05:30:55;;;;;;;16.1;6.3;;;;;;;5.08;78.30664;96924.81;;;;
2021/01/23 05:40:53;;;;;;;16.7;5.8;;;;;;;5.07;78.4502;96920.56;;;;
2021/01/23 05:50:52;;;;;;;7.1;4.5;;;;;;;5.26;78.42676;96916.82;;;;
2021/01/23 06:00:53;;;;;;;7.5;5.9;;;;;;;5.3;78.61328;96899.07;;;;
2021/01/23 06:10:51;;;;;;;7.1;5.4;;;;;;;5.25;78.65918;96897.34;;;;
2021/01/23 06:20:47;;;;;;;11.3;6.8;;;;;;;5.24;78.95801;96897.66;;;;
2021/01/23 06:30:45;;;;;;;20.5;16.4;;;;;;;5.23;78.89941;96914.78;;;;
2021/01/23 06:40:43;;;;;;;11.5;7.3;;;;;;;5.1;79.11035;96905.03;;;;
2021/01/23 06:50:42;;;;;;;12.9;8.5;;;;;;;5.11;79.3252;96894.02;;;;
2021/01/23 07:00:40;;;;;;;27.2;17.8;;;;;;;5.27;79.05371;96894.36;;;;
2021/01/23 07:10:38;;;;;;;12.6;7.7;;;;;;;5.31;78.88184;96903.33;;;;
2021/01/23 07:20:37;;;;;;;15.7;10.7;;;;;;;5.17;78.66699;96913.37;;;;
2021/01/23 07:30:35;;;;;;;13.6;9.4;;;;;;;5.13;79.47266;96905.2;;;;
2021/01/23 07:40:35;;;;;;;17.7;12.7;;;;;;;5.02;79.43066;96894.03;;;;
2021/01/23 07:50:32;;;;;;;6.5;4;;;;;;;5.19;80.5293;96892.47;;;;
2021/01/23 08:00:30;;;;;;;12.1;7;;;;;;;5.91;78.51172;96877.33;;;;
2021/01/23 08:10:28;;;;;;;8.6;6.8;;;;;;;6.32;76.92188;96859.87;;;;
2021/01/23 08:20:27;;;;;;;10.3;6.5;;;;;;;6.74;75.17285;96831.3;;;;
2021/01/23 08:30:25;;;;;;;11;8.2;;;;;;;6.92;74.55469;96819.38;;;;
2021/01/23 08:40:24;;;;;;;10.5;6.7;;;;;;;7.38;73.05273;96804.96;;;;
2021/01/23 08:50:23;;;;;;;9.7;6.2;;;;;;;7.54;72.27344;96801.33;;;;
2021/01/23 09:00:21;;;;;;;8.9;5.7;;;;;;;7.64;71.7627;96789.39;;;;
2021/01/23 09:10:20;;;;;;;9.4;6.2;;;;;;;7.66;71.41797;96797.11;;;;
2021/01/23 09:20:18;;;;;;;10.6;7.2;;;;;;;7.7;71.34473;96811.43;;;;
2021/01/23 09:30:17;;;;;;;12.3;7.6;;;;;;;7.8;70.78809;96816.36;;;;
2021/01/23 11:13:00;;;;;;;18.3;13.4;;;;;;;9.13;67.30859;96812.87;;;;
2021/01/23 11:22:59;;;;;;;15.5;10.1;;;;;;;9;68.08984;96806.73;;;;
2021/01/23 11:32:58;;;;;;;20.5;14.3;;;;;;;8.97;67.72656;96808.2;;;;
2021/01/23 11:42:57;;;;;;;23.5;14.7;;;;;;;8.88;67.80078;96794.13;;;;
2021/01/23 11:52:56;;;;;;;20.6;14.8;;;;;;;8.86;67.79688;96774.08;;;;
2021/01/23 12:02:54;;;;;;;6.2;2.7;;;;;;;9.47;63.76074;96764.67;;;;
2021/01/23 12:12:55;;;;;;;5;2.9;;;;;;;9.98;61.8418;96745.95;;;;
2021/01/23 12:22:52;;;;;;;5.8;3.2;;;;;;;10.36;60.79883;96743.42;;;;
2021/01/23 12:32:51;;;;;;;5.1;2.8;;;;;;;10.19;61.09082;96753.78;;;;
2021/01/23 12:42:50;;;;;;;5.1;2.2;;;;;;;10.15;61.41309;96752.91;;;;
2021/01/23 12:52:49;;;;;;;8;4.7;;;;;;;9.94;63.20703;96753.94;;;;
2021/01/23 13:02:48;;;;;;;6;3.6;;;;;;;10.01;62.16406;96729.11;;;;
2021/01/23 13:12:48;;;;;;;8.4;5.5;;;;;;;10.07;62.26465;96725.8;;;;
2021/01/23 13:22:45;;;;;;;8.6;5.2;;;;;;;10.15;61.16406;96712.53;;;;
2021/01/23 13:32:46;;;;;;;9.7;5.9;;;;;;;10.33;61.41699;96719.11;;;;
2021/01/23 13:42:43;;;;;;;6.7;3.6;;;;;;;10.34;60.85156;96712.6;;;;
2021/01/23 13:52:42;;;;;;;4.4;2.1;;;;;;;10.17;60.62402;96708.35;;;;
2021/01/23 14:02:41;;;;;;;4.2;2.5;;;;;;;9.65;61.84082;96713.25;;;;
2021/01/23 14:12:40;;;;;;;3.5;1.8;;;;;;;9.55;62.34766;96701.86;;;;
2021/01/23 14:22:39;;;;;;;6.6;2.8;;;;;;;9.3;62.26563;96691.61;;;;
2021/01/23 14:32:38;;;;;;;4.3;2.3;;;;;;;9.19;62.86035;96720.11;;;;
2021/01/23 14:42:37;;;;;;;4.4;2.9;;;;;;;8.96;63.12109;96720.65;;;;
2021/01/23 14:52:35;;;;;;;3.5;2.4;;;;;;;8.75;63.70898;96730;;;;
2021/01/23 15:02:34;;;;;;;3.9;2.4;;;;;;;8.54;63.69043;96746.28;;;;
2021/01/23 15:12:34;;;;;;;5.4;3.5;;;;;;;8.25;64.53711;96759.95;;;;
2021/01/23 15:22:32;;;;;;;18.7;10.5;;;;;;;7.9;65.93848;96746.2;;;;
2021/01/23 15:32:31;;;;;;;22.6;15;;;;;;;7.41;68.03125;96739.98;;;;
2021/01/23 15:42:29;;;;;;;11.8;7.4;;;;;;;7.27;68.2334;96742.17;;;;
2021/01/23 15:52:28;;;;;;;15.1;11.8;;;;;;;7.07;68.70801;96754.5;;;;
2021/01/23 16:02:26;;;;;;;8.8;7.9;;;;;;;6.76;68.79395;96738.87;;;;
2021/01/23 16:12:26;;;;;;;17.3;10.8;;;;;;;6.31;69.60645;96727.23;;;;
2021/01/23 16:22:23;;;;;;;28.5;23.2;;;;;;;5.98;71.0293;96737.8;;;;
2021/01/23 16:32:22;;;;;;;22.7;19.2;;;;;;;5.8;71.80469;96747.75;;;;
2021/01/23 16:42:22;;;;;;;22.4;14.2;;;;;;;5.74;73.25977;96741.02;;;;
2021/01/23 16:52:19;;;;;;;28.6;22.1;;;;;;;5.51;74.20215;96763.75;;;;
2021/01/23 17:02:17;;;;;;;33.2;24.9;;;;;;;6.12;73.00977;96773.12;;;;
2021/01/23 17:12:16;;;;;;;28.4;20.6;;;;;;;6.11;75.16504;96779.56;;;;
2021/01/23 17:22:14;;;;;;;26.2;21.4;;;;;;;5.87;78.33789;96788.16;;;;
2021/01/23 17:32:13;;;;;;;28.7;25.7;;;;;;;5.67;78.73535;96818.23;;;;
2021/01/23 17:42:11;;;;;;;32;27.7;;;;;;;5.56;79.87695;96823.14;;;;
2021/01/23 17:52:11;;;;;;;25.7;19.1;;;;;;;5.45;78.94141;96834.46;;;;
2021/01/23 18:02:08;;;;;;;25;18.6;;;;;;;5.35;78.8125;96837.47;;;;
2021/01/23 18:12:07;;;;;;;22.9;16.3;;;;;;;5.23;77.56445;96832.78;;;;
2021/01/23 18:22:05;;;;;;;20.1;13.4;;;;;;;5.11;76.96191;96850.52;;;;
2021/01/23 18:32:06;;;;;;;21.4;13.1;;;;;;;4.84;76.00293;96852.4;;;;
2021/01/23 18:42:01;;;;;;;18.8;14.3;;;;;;;4.73;75.19238;96850.33;;;;
2021/01/23 18:52:00;;;;;;;19.4;13.4;;;;;;;4.45;75.18945;96845.26;;;;
2021/01/23 19:01:58;;;;;;;20.8;13.6;;;;;;;4.33;75.75781;96861.08;;;;
2021/01/23 19:11:56;;;;;;;17.5;13.2;;;;;;;4.26;76.06738;96874.08;;;;
2021/01/23 19:21:55;;;;;;;17.9;13.6;;;;;;;4.05;76.61914;96857.05;;;;
2021/01/23 19:31:53;;;;;;;17.5;11.6;;;;;;;4.02;77.12402;96863;;;;
2021/01/23 19:41:51;;;;;;;21.7;15.2;;;;;;;3.99;76.88672;96840.39;;;;
2021/01/23 19:51:50;;;;;;;23.3;16.9;;;;;;;3.94;77.20898;96855.73;;;;
2021/01/23 20:01:48;;;;;;;28.1;20.3;;;;;;;3.88;77.54395;96843.65;;;;
2021/01/23 20:11:47;;;;;;;31.4;24.6;;;;;;;3.84;77.69141;96837.36;;;;
2021/01/23 20:21:45;;;;;;;26.7;20.7;;;;;;;3.82;77.46777;96840.31;;;;
2021/01/23 20:31:43;;;;;;;25.8;20.9;;;;;;;3.81;77.48633;96854.75;;;;
2021/01/23 20:41:41;;;;;;;33;24;;;;;;;3.74;78.01758;96869.59;;;;
2021/01/23 20:51:39;;;;;;;21.8;17.2;;;;;;;3.68;78.20605;96860.16;;;;
2021/01/23 21:01:38;;;;;;;38.4;29.6;;;;;;;3.66;78.50293;96864.99;;;;
2021/01/23 21:11:36;;;;;;;27.3;20;;;;;;;3.64;78.80078;96881.3;;;;
2021/01/23 21:21:34;;;;;;;30.4;20.6;;;;;;;3.54;79.72363;96892.17;;;;
2021/01/23 21:31:32;;;;;;;28;19.2;;;;;;;3.63;79.24121;96887.7;;;;
2021/01/23 21:41:31;;;;;;;28.3;21.9;;;;;;;3.64;79.30957;96888.5;;;;
2021/01/23 21:51:29;;;;;;;23.5;15.6;;;;;;;3.65;79.42188;96882.05;;;;
2021/01/23 22:01:27;;;;;;;26;16.8;;;;;;;3.69;79.52832;96899.02;;;;
2021/01/23 22:11:25;;;;;;;27;19.3;;;;;;;3.75;78.78711;96865.84;;;;
2021/01/23 22:21:23;;;;;;;29.6;18.7;;;;;;;3.71;78.90137;96847.02;;;;
2021/01/23 22:31:22;;;;;;;26.8;17.2;;;;;;;3.63;79.04102;96837.09;;;;
2021/01/23 22:41:20;;;;;;;19.9;14.2;;;;;;;3.54;78.76953;96828.25;;;;
2021/01/23 22:51:19;;;;;;;16.9;14.7;;;;;;;3.48;78.99121;96818.83;;;;
2021/01/23 23:01:16;;;;;;;18.3;15.6;;;;;;;3.23;80.61816;96846.85;;;;
2021/01/23 23:11:14;;;;;;;15.3;13.7;;;;;;;3.41;79.78906;96842.43;;;;
2021/01/23 23:21:12;;;;;;;19.2;14.8;;;;;;;3.36;80.06738;96819.4;;;;
2021/01/23 23:31:10;;;;;;;21.5;16.4;;;;;;;3.25;80.63477;96818.06;;;;
2021/01/23 23:41:08;;;;;;;33.9;20.9;;;;;;;3.24;80.61133;96813.83;;;;
2021/01/23 23:51:07;;;;;;;31.3;21;;;;;;;3.24;80.50977;96802.39;;;;
